Airfield :
LOGIN :

Register | Disclaimer

   EN    FR    IT 

 










Legend :    VFR   Marginal VFR   IFR   Intensive IFR   Very Intensive IFR
Visi :
Ceiling :
>= 8 km
>= 3000ft
5 to 8 km
1000 to 3000 ft
1500m to 5 km
500 to 1000 ft
800 to 1500m
200 to 500 ft
< 800m
< 200 ft
Symbols :   Thunderstorms  Fog  Heavy snow  Heavy precipitations  Wind > 20 kt
SIGMETs :     Misc.  Thunderstorms  Icing  Turbulence  Mountain Waves  Volcanic Ashes







- Airport Elevation : 53 ft
- IATA code : LBC


EDHL - Lübeck

CURRENT METAR :
  • 250820Z 20018KT 9999 SCT019 SCT044 15/11 Q1000

EXPIRED METARs :
  • 250750Z 21012KT 160V230 9999 SCT015 SCT045 14/12 Q1000
  • 250720Z 20014KT 170V230 9999 SCT016 SCT060 13/12 Q1000
  • 250650Z 20012KT 8000 -RA BKN017 13/12 Q1001
  • 250620Z 19011KT 6000 BKN012 13/12 Q1001
  • 250550Z 18010KT 6000 FEW014 BKN025 12/12 Q1001

TAF TAF EDHL
Valid from the 25 at 09:00 until the 25 at 18:00 UTC


250800Z 2509/2518 22015G25KT 9999 BKN025
TEMPO 2509/2513 24020G35KT
BECMG 2514/2516 28010KT
TEMPO 2514/2518 4000 SHRA BKN012CB
No reported NOTAMs for that airfield.



MET'MAP, your aeronautical weather chart ! - Copyright ORBIFLY December 2007 - Disclaimer

ORBIFLY MET'MAP TEAM :

Programming & Development : Alexandra Zaïnal
Concept & Development : Baudouin d'Aumeries
Co-Development & Prog : Marc-Olivier Méhu
Technical & hardware support : Manuel Goepfert

Contact : metmap@orbifly.com




SOURCES & CREDITS :

   NOAA